Time;durP1;ratioP1;P1;durP2;ratioP2;P2;SDS_P1;SDS_P2;PMS_P1;PMS_P2;Temp;Humidity;BMP_temperature;BMP_pressure;BME280_temperature;BME280_humidity;BME280_pressure;Samples;Min_cycle;Max_cycle;Signal;HPM_P1;HPM_P2
2022/08/06 00:02:16;;;;;;;7.13;1.40;;;13.60;99.90;;;;;;5069331;28;20048;-72
2022/08/06 00:04:41;;;;;;;3.38;1.20;;;13.60;99.90;;;;;;5074199;28;20430;-73
2022/08/06 00:07:07;;;;;;;5.75;1.52;;;13.60;99.90;;;;;;5054026;28;20486;-72
2022/08/06 00:09:33;;;;;;;5.63;1.50;;;13.60;99.90;;;;;;5057549;28;20054;-74
2022/08/06 00:12:00;;;;;;;6.75;1.50;;;13.60;99.90;;;;;;5072099;28;20063;-72
2022/08/06 00:14:27;;;;;;;4.78;1.45;;;13.60;99.90;;;;;;5067873;28;20085;-72
2022/08/06 00:16:53;;;;;;;6.38;1.63;;;13.60;99.90;;;;;;5073673;28;20091;-72
2022/08/06 00:19:19;;;;;;;4.70;1.60;;;13.60;99.90;;;;;;5072156;28;20115;-73
2022/08/06 00:21:44;;;;;;;5.15;1.30;;;13.50;99.90;;;;;;5075955;28;20066;-72
2022/08/06 00:24:10;;;;;;;6.25;1.70;;;13.50;99.90;;;;;;5077516;28;20040;-73
2022/08/06 00:26:37;;;;;;;6.03;1.40;;;13.50;99.90;;;;;;5083097;28;20137;-73
2022/08/06 00:29:04;;;;;;;3.00;1.30;;;13.50;99.90;;;;;;5081126;28;20040;-73
2022/08/06 00:31:30;;;;;;;3.05;1.17;;;13.50;99.90;;;;;;5073317;28;20724;-72
2022/08/06 00:33:56;;;;;;;3.15;1.25;;;13.50;99.90;;;;;;5056014;28;20051;-71
2022/08/06 00:36:25;;;;;;;6.68;1.52;;;13.50;99.90;;;;;;5058807;28;20043;-72
2022/08/06 00:38:52;;;;;;;3.88;1.55;;;13.50;99.90;;;;;;5079072;28;20036;-72
2022/08/06 00:41:18;;;;;;;6.13;1.55;;;13.40;99.90;;;;;;5072368;28;20048;-72
2022/08/06 00:43:44;;;;;;;7.53;1.70;;;13.40;99.90;;;;;;5078393;28;20035;-73
2022/08/06 00:46:09;;;;;;;3.65;1.27;;;13.40;99.90;;;;;;5078972;28;20047;-73
2022/08/06 00:48:35;;;;;;;9.05;1.45;;;13.40;99.90;;;;;;5059255;28;20105;-73
2022/08/06 00:51:01;;;;;;;4.65;1.30;;;13.40;99.90;;;;;;5078019;28;20123;-73
2022/08/06 00:53:27;;;;;;;4.35;1.42;;;13.30;99.90;;;;;;5074803;28;20102;-73
2022/08/06 00:55:53;;;;;;;2.92;1.33;;;13.30;99.90;;;;;;5074313;28;20067;-73
2022/08/06 00:58:18;;;;;;;6.97;1.60;;;13.30;99.90;;;;;;5060843;28;22114;-72
2022/08/06 01:00:44;;;;;;;7.03;1.30;;;13.30;99.90;;;;;;5080370;28;20046;-73
2022/08/06 01:03:10;;;;;;;2.35;1.00;;;13.30;99.90;;;;;;5082778;28;20039;-73
2022/08/06 01:05:36;;;;;;;3.58;1.10;;;13.30;99.90;;;;;;5078380;28;20036;-73
2022/08/06 01:08:02;;;;;;;2.90;1.40;;;13.30;99.90;;;;;;5079628;28;20129;-74
2022/08/06 01:10:28;;;;;;;5.85;1.20;;;13.30;99.90;;;;;;5065002;28;20060;-72
2022/08/06 01:12:54;;;;;;;3.40;1.13;;;13.20;99.90;;;;;;5061198;28;20496;-73
2022/08/06 01:15:19;;;;;;;2.80;1.13;;;13.20;99.90;;;;;;5083027;28;20037;-74
2022/08/06 01:17:54;;;;;;;2.95;1.48;;;13.20;99.90;;;;;;5082634;28;20040;-74
2022/08/06 01:20:58;;;;;;;5.45;1.27;;;13.10;99.90;;;;;;5066923;28;20513;-73
2022/08/06 01:23:26;;;;;;;5.47;1.35;;;13.10;99.90;;;;;;4987202;28;20049;-72
2022/08/06 01:25:59;;;;;;;2.83;1.30;;;13.10;99.90;;;;;;4988273;28;21162;-73
2022/08/06 01:28:30;;;;;;;3.60;1.35;;;13.10;99.90;;;;;;4985704;28;20049;-73
2022/08/06 01:31:08;;;;;;;3.78;1.35;;;13.00;99.90;;;;;;5006636;28;20060;-73
2022/08/06 01:33:42;;;;;;;4.45;1.15;;;12.90;99.90;;;;;;4971892;28;20129;-72
2022/08/06 01:36:14;;;;;;;3.05;1.15;;;12.80;99.90;;;;;;5000031;28;20099;-72
2022/08/06 01:38:50;;;;;;;2.50;1.20;;;12.80;99.90;;;;;;4988455;28;20073;-73
2022/08/06 01:41:38;;;;;;;2.80;1.13;;;12.80;99.90;;;;;;4969824;28;20048;-73
2022/08/06 01:44:10;;;;;;;3.47;1.10;;;12.70;99.90;;;;;;5001848;28;20058;-72
2022/08/06 01:46:39;;;;;;;4.53;1.40;;;12.70;99.90;;;;;;4984319;28;20117;-73
2022/08/06 01:49:29;;;;;;;3.45;1.27;;;12.60;99.90;;;;;;5006850;28;20050;-72
2022/08/06 01:51:59;;;;;;;2.88;1.17;;;12.60;99.90;;;;;;5006223;28;20545;-73
2022/08/06 01:54:28;;;;;;;4.18;1.50;;;12.50;99.90;;;;;;4984593;28;20456;-72
2022/08/06 01:56:57;;;;;;;5.75;1.52;;;12.50;99.90;;;;;;4999128;28;20047;-72
2022/08/06 01:59:32;;;;;;;3.70;1.50;;;12.50;99.90;;;;;;5082353;28;20047;-72
2022/08/06 02:02:02;;;;;;;3.88;1.40;;;12.40;99.90;;;;;;5060885;28;21217;-72
2022/08/06 02:04:32;;;;;;;5.43;1.73;;;12.40;99.90;;;;;;5073750;28;20044;-72
2022/08/06 02:06:58;;;;;;;3.15;1.40;;;12.40;99.90;;;;;;5076768;28;20080;-73
2022/08/06 02:09:26;;;;;;;4.47;1.45;;;12.40;99.90;;;;;;5079975;28;20071;-73
2022/08/06 02:12:09;;;;;;;6.10;1.75;;;12.40;99.90;;;;;;5082309;28;20082;-73
2022/08/06 02:14:40;;;;;;;6.05;1.70;;;12.40;99.90;;;;;;5072401;28;20054;-72
2022/08/06 02:17:07;;;;;;;8.15;1.80;;;12.40;99.90;;;;;;5086941;28;20069;-72
2022/08/06 02:19:33;;;;;;;4.90;1.60;;;12.30;99.90;;;;;;5078559;28;20036;-73
2022/08/06 02:22:00;;;;;;;5.20;2.00;;;12.30;99.90;;;;;;5079569;28;20399;-72
2022/08/06 02:24:28;;;;;;;7.40;2.08;;;12.30;99.90;;;;;;5063707;28;20040;-72
2022/08/06 02:26:55;;;;;;;3.05;1.67;;;12.30;99.90;;;;;;5061156;28;20050;-72
2022/08/06 02:29:23;;;;;;;3.05;1.80;;;12.30;99.90;;;;;;5079702;28;20039;-73
2022/08/06 02:31:49;;;;;;;2.60;1.60;;;12.20;99.90;;;;;;5078690;28;20083;-72
2022/08/06 02:34:15;;;;;;;3.35;1.80;;;12.20;99.90;;;;;;5060579;28;20043;-73
2022/08/06 02:36:49;;;;;;;2.10;1.70;;;12.20;99.90;;;;;;5076793;28;20098;-73
2022/08/06 02:39:22;;;;;;;3.92;2.33;;;12.20;99.90;;;;;;5079138;28;20040;-72
2022/08/06 02:42:08;;;;;;;7.90;2.83;;;12.10;99.90;;;;;;5078023;28;20040;-72
2022/08/06 02:44:52;;;;;;;5.95;2.60;;;12.10;99.90;;;;;;5060114;28;20124;-73
2022/08/06 02:47:25;;;;;;;6.60;2.28;;;12.10;99.90;;;;;;5081062;28;20080;-73
2022/08/06 02:49:55;;;;;;;3.22;2.00;;;12.10;99.90;;;;;;5075281;28;20146;-73
2022/08/06 02:52:33;;;;;;;4.82;2.17;;;12.00;99.90;;;;;;5080802;28;20055;-72
2022/08/06 02:55:07;;;;;;;6.30;2.15;;;12.00;99.90;;;;;;5060048;28;20048;-73
2022/08/06 02:57:38;;;;;;;3.25;1.73;;;12.00;99.90;;;;;;5097761;28;20052;-72
2022/08/06 03:00:08;;;;;;;3.80;1.75;;;11.90;99.90;;;;;;5080748;28;20037;-73
2022/08/06 03:03:11;;;;;;;5.72;1.60;;;12.00;99.90;;;;;;5087838;28;20047;-73
2022/08/06 03:05:37;;;;;;;5.30;1.70;;;11.90;99.90;;;;;;5074868;28;20057;-73
2022/08/06 03:08:06;;;;;;;6.55;1.58;;;11.80;99.90;;;;;;5067555;28;20041;-73
2022/08/06 03:10:36;;;;;;;5.07;1.50;;;11.90;99.90;;;;;;5082394;28;20063;-73
2022/08/06 03:13:04;;;;;;;3.70;1.60;;;11.90;99.90;;;;;;5082212;28;20051;-73
2022/08/06 03:15:32;;;;;;;6.22;1.80;;;11.80;99.90;;;;;;5078627;28;20063;-72
2022/08/06 03:18:00;;;;;;;2.63;1.40;;;11.80;99.90;;;;;;5091181;28;20043;-73
2022/08/06 03:20:28;;;;;;;5.28;1.70;;;11.90;99.90;;;;;;5088463;28;20048;-73
2022/08/06 03:22:59;;;;;;;3.17;1.55;;;11.90;99.90;;;;;;5090706;28;20040;-74
2022/08/06 03:25:27;;;;;;;6.95;1.55;;;11.80;99.90;;;;;;5086587;28;20344;-73
2022/08/06 03:27:54;;;;;;;2.28;1.52;;;11.80;99.90;;;;;;5081097;28;20143;-73
2022/08/06 03:30:20;;;;;;;4.50;1.33;;;11.80;99.90;;;;;;5088409;28;20044;-73
2022/08/06 03:32:48;;;;;;;4.88;1.50;;;11.80;99.90;;;;;;5087407;28;20048;-73
2022/08/06 03:35:15;;;;;;;2.70;1.40;;;11.70;99.90;;;;;;5082255;28;20093;-73
2022/08/06 03:37:42;;;;;;;1.75;1.50;;;11.70;99.90;;;;;;5086274;28;20376;-74
2022/08/06 03:40:10;;;;;;;3.53;1.60;;;11.80;99.90;;;;;;5083244;28;20079;-74
2022/08/06 03:42:36;;;;;;;2.80;1.67;;;11.70;99.90;;;;;;5068782;28;20055;-73
2022/08/06 03:45:02;;;;;;;5.70;1.95;;;11.70;99.90;;;;;;5064936;28;20157;-74
2022/08/06 03:47:41;;;;;;;3.08;1.48;;;11.70;99.90;;;;;;5079736;28;20039;-73
2022/08/06 03:50:25;;;;;;;1.63;1.30;;;11.60;99.90;;;;;;5078937;28;20389;-72
2022/08/06 03:53:08;;;;;;;3.50;1.40;;;11.50;99.90;;;;;;5083798;28;20047;-73
2022/08/06 03:55:37;;;;;;;3.58;1.50;;;11.50;99.90;;;;;;5078668;28;20078;-73
2022/08/06 03:58:07;;;;;;;2.47;1.52;;;11.50;99.90;;;;;;5083990;28;20157;-73
2022/08/06 04:00:44;;;;;;;5.40;1.80;;;11.50;99.90;;;;;;5077088;28;20032;-73
2022/08/06 04:03:11;;;;;;;4.38;1.90;;;11.60;99.90;;;;;;5078009;28;20044;-74
2022/08/06 04:05:37;;;;;;;4.18;1.77;;;11.60;99.90;;;;;;5078956;28;20332;-73
2022/08/06 04:08:05;;;;;;;3.10;2.00;;;11.50;99.90;;;;;;5075278;28;20117;-73
2022/08/06 04:10:37;;;;;;;3.22;1.70;;;11.50;99.90;;;;;;5073112;28;20148;-75
2022/08/06 04:13:07;;;;;;;2.58;1.70;;;11.50;99.90;;;;;;5079696;28;20047;-74
2022/08/06 04:15:34;;;;;;;8.38;2.00;;;11.50;99.90;;;;;;5080490;28;20032;-73
2022/08/06 04:18:01;;;;;;;4.15;1.75;;;11.50;99.90;;;;;;5066135;28;20040;-72
2022/08/06 04:20:28;;;;;;;6.13;1.92;;;11.50;99.90;;;;;;5079431;28;20458;-73
2022/08/06 04:22:54;;;;;;;2.83;1.88;;;11.50;99.90;;;;;;5076659;28;20131;-73
2022/08/06 04:25:21;;;;;;;6.45;2.05;;;11.60;99.90;;;;;;5078638;28;20047;-73
2022/08/06 04:27:48;;;;;;;5.57;2.17;;;11.60;99.90;;;;;;5064632;28;20399;-73
2022/08/06 04:30:14;;;;;;;3.38;1.73;;;11.60;99.90;;;;;;5077149;28;20055;-73
2022/08/06 04:32:42;;;;;;;3.42;1.92;;;11.70;99.90;;;;;;5077716;28;20061;-73
2022/08/06 04:35:09;;;;;;;4.35;2.00;;;11.70;99.90;;;;;;5066870;28;20049;-73
2022/08/06 04:37:35;;;;;;;4.72;1.83;;;11.80;99.90;;;;;;5067760;28;20089;-73
2022/08/06 04:40:02;;;;;;;4.55;1.75;;;11.90;99.90;;;;;;5060176;28;20048;-73
2022/08/06 04:42:28;;;;;;;4.60;1.85;;;12.00;99.90;;;;;;5060546;28;20127;-73
2022/08/06 04:44:55;;;;;;;4.30;1.90;;;12.00;99.90;;;;;;5083136;28;20051;-73
2022/08/06 04:47:21;;;;;;;6.78;2.10;;;12.10;99.90;;;;;;5077641;28;20499;-73
2022/08/06 04:49:47;;;;;;;10.18;1.92;;;12.20;99.90;;;;;;5076598;28;20089;-73
2022/08/06 04:52:23;;;;;;;6.55;2.08;;;12.40;99.90;;;;;;5082513;28;20036;-73
2022/08/06 04:54:49;;;;;;;4.15;1.90;;;12.40;99.90;;;;;;5082314;28;20123;-73
2022/08/06 04:57:15;;;;;;;8.13;2.00;;;12.40;99.90;;;;;;5080468;28;20050;-73
2022/08/06 04:59:40;;;;;;;8.00;1.90;;;12.40;99.90;;;;;;5076376;28;20199;-73
2022/08/06 05:02:06;;;;;;;5.40;1.70;;;12.40;99.90;;;;;;5079069;28;20101;-73
2022/08/06 05:04:33;;;;;;;4.25;1.75;;;12.40;99.90;;;;;;5062330;28;20159;-73
2022/08/06 05:07:28;;;;;;;4.07;1.80;;;12.50;99.90;;;;;;5079153;28;20132;-74
2022/08/06 05:09:58;;;;;;;3.17;1.52;;;12.30;99.90;;;;;;5078703;28;20248;-74
2022/08/06 05:12:32;;;;;;;3.97;1.73;;;12.30;99.90;;;;;;5061934;28;20420;-73
2022/08/06 05:15:06;;;;;;;4.90;1.92;;;12.20;99.90;;;;;;5079768;28;20085;-73
2022/08/06 05:17:40;;;;;;;6.57;2.10;;;12.30;99.90;;;;;;5080135;28;20039;-73
2022/08/06 05:20:18;;;;;;;5.80;1.80;;;12.20;99.90;;;;;;5081582;28;20051;-73
2022/08/06 05:22:48;;;;;;;4.20;1.77;;;12.20;99.90;;;;;;5080864;28;20321;-73
2022/08/06 05:25:15;;;;;;;5.75;1.88;;;12.20;99.90;;;;;;5080958;28;20128;-73
2022/08/06 05:27:42;;;;;;;4.38;1.75;;;12.20;99.90;;;;;;5081723;28;21600;-73
2022/08/06 05:30:09;;;;;;;3.88;1.95;;;12.10;99.90;;;;;;5079283;28;20051;-73
2022/08/06 05:33:01;;;;;;;7.10;1.90;;;12.10;99.90;;;;;;5079512;28;20040;-74
2022/08/06 05:35:26;;;;;;;2.90;1.63;;;12.30;99.90;;;;;;5069852;28;20040;-73
2022/08/06 05:37:52;;;;;;;2.60;1.73;;;12.40;99.90;;;;;;5079092;28;20592;-74
2022/08/06 05:40:18;;;;;;;3.05;1.55;;;12.50;99.90;;;;;;5082841;28;20043;-73
2022/08/06 05:42:43;;;;;;;3.13;1.80;;;12.50;99.90;;;;;;5075716;28;20040;-74
2022/08/06 05:45:12;;;;;;;3.92;1.70;;;12.60;99.90;;;;;;5079925;28;20020;-73
2022/08/06 05:47:40;;;;;;;4.05;1.73;;;12.60;99.90;;;;;;5085455;28;20429;-72
2022/08/06 05:50:17;;;;;;;5.43;1.85;;;12.70;99.90;;;;;;5082370;28;20406;-73
2022/08/06 05:52:50;;;;;;;2.45;1.75;;;12.70;99.90;;;;;;5090265;28;20066;-72
2022/08/06 05:55:34;;;;;;;2.80;1.83;;;12.80;99.90;;;;;;5073328;28;20116;-73
2022/08/06 05:58:04;;;;;;;4.35;1.80;;;12.80;99.90;;;;;;5081930;28;20054;-73
2022/08/06 06:00:35;;;;;;;5.20;1.70;;;12.80;99.90;;;;;;5084306;28;20137;-74
2022/08/06 06:03:03;;;;;;;5.75;1.60;;;12.80;99.90;;;;;;5088200;28;20062;-73
2022/08/06 06:05:30;;;;;;;3.63;1.65;;;12.90;99.90;;;;;;5087778;28;20040;-72
2022/08/06 06:07:55;;;;;;;4.30;1.95;;;13.00;99.90;;;;;;5076088;28;20040;-72
2022/08/06 06:10:25;;;;;;;3.38;1.73;;;13.00;99.90;;;;;;5063737;28;20113;-72
2022/08/06 06:12:51;;;;;;;2.58;1.50;;;13.00;99.90;;;;;;5081419;28;20072;-72
2022/08/06 06:15:18;;;;;;;6.47;1.70;;;13.20;99.90;;;;;;5080163;28;20055;-72
2022/08/06 06:17:51;;;;;;;5.85;1.80;;;13.30;99.90;;;;;;5060384;28;20094;-74
2022/08/06 06:20:32;;;;;;;3.80;1.65;;;13.40;99.90;;;;;;5084165;28;20054;-72
2022/08/06 06:23:17;;;;;;;8.95;1.83;;;13.70;99.90;;;;;;5058909;28;20067;-72
2022/08/06 06:26:07;;;;;;;3.63;1.80;;;14.10;99.90;;;;;;5065240;28;20036;-73
2022/08/06 06:28:59;;;;;;;2.58;1.50;;;14.40;99.90;;;;;;5083164;28;20043;-74
2022/08/06 06:31:35;;;;;;;6.43;1.50;;;14.70;99.90;;;;;;5063478;28;20040;-73
2022/08/06 06:34:13;;;;;;;2.38;1.38;;;14.90;99.90;;;;;;5064337;28;20058;-72
2022/08/06 06:37:09;;;;;;;1.77;1.30;;;15.20;99.90;;;;;;5080311;28;20040;-73
2022/08/06 06:39:52;;;;;;;1.75;1.20;;;15.50;99.90;;;;;;5057638;28;20044;-73
2022/08/06 06:42:25;;;;;;;5.05;1.45;;;15.70;99.90;;;;;;5061243;28;20048;-73
2022/08/06 06:44:56;;;;;;;4.65;1.35;;;15.90;99.90;;;;;;5075742;28;20047;-73
2022/08/06 06:47:31;;;;;;;2.20;1.23;;;16.10;99.90;;;;;;5081127;28;20522;-72
2022/08/06 06:50:11;;;;;;;4.78;1.27;;;16.20;99.90;;;;;;5076981;28;20176;-73
2022/08/06 06:52:39;;;;;;;2.50;1.10;;;16.20;99.90;;;;;;5077265;28;20044;-74
2022/08/06 06:55:26;;;;;;;3.92;1.30;;;16.20;99.90;;;;;;5060937;28;20047;-74
2022/08/06 06:58:20;;;;;;;2.80;1.02;;;16.30;99.90;;;;;;5077821;28;20047;-74
2022/08/06 07:00:47;;;;;;;7.32;1.50;;;16.40;99.90;;;;;;5070264;28;20048;-73
2022/08/06 07:03:14;;;;;;;5.70;1.67;;;16.40;99.90;;;;;;5061827;28;20455;-74
2022/08/06 07:05:43;;;;;;;2.10;0.90;;;16.60;99.90;;;;;;5055827;28;21081;-74
2022/08/06 07:08:11;;;;;;;8.60;1.10;;;16.60;99.90;;;;;;5072800;28;20039;-74
2022/08/06 07:10:39;;;;;;;4.80;1.10;;;16.60;99.90;;;;;;5071884;28;20459;-74
2022/08/06 07:13:07;;;;;;;2.95;1.00;;;16.70;99.90;;;;;;5076065;28;20067;-74
2022/08/06 07:15:35;;;;;;;2.85;0.70;;;16.90;99.90;;;;;;5060187;28;20040;-74
2022/08/06 07:18:03;;;;;;;2.33;1.00;;;16.90;99.90;;;;;;5070557;28;20493;-75
2022/08/06 07:20:31;;;;;;;5.38;1.10;;;17.10;99.90;;;;;;5076446;28;20922;-74
2022/08/06 07:23:00;;;;;;;4.07;1.00;;;17.20;99.90;;;;;;5077737;28;20133;-75
2022/08/06 07:25:26;;;;;;;11.43;0.90;;;17.20;99.90;;;;;;5062994;28;20052;-74
2022/08/06 07:27:52;;;;;;;2.15;0.70;;;17.30;99.90;;;;;;5078563;28;20158;-74
2022/08/06 07:30:20;;;;;;;4.97;0.75;;;17.40;99.90;;;;;;5071046;28;20078;-73
2022/08/06 07:32:49;;;;;;;2.95;0.88;;;17.40;99.90;;;;;;5073446;28;20075;-75
2022/08/06 07:35:19;;;;;;;6.28;1.00;;;17.50;99.90;;;;;;5073083;28;20676;-73
2022/08/06 07:37:55;;;;;;;3.40;0.70;;;17.50;99.90;;;;;;5059340;28;20398;-73
2022/08/06 07:40:35;;;;;;;4.15;0.88;;;17.50;99.90;;;;;;5067378;28;20032;-72
2022/08/06 07:43:08;;;;;;;3.17;0.82;;;17.50;99.90;;;;;;5066676;28;20043;-74
2022/08/06 07:45:34;;;;;;;2.75;0.75;;;17.60;99.90;;;;;;5071076;28;20040;-71
2022/08/06 07:48:06;;;;;;;6.72;0.85;;;17.60;99.90;;;;;;5070024;28;20097;-73
2022/08/06 07:50:35;;;;;;;5.88;0.77;;;17.80;99.90;;;;;;5056062;28;20047;-72
2022/08/06 07:53:05;;;;;;;2.90;0.70;;;18.00;99.90;;;;;;5071598;28;20036;-73
2022/08/06 07:55:34;;;;;;;2.10;0.70;;;18.00;99.90;;;;;;5072940;28;20056;-73
2022/08/06 07:58:01;;;;;;;4.07;0.90;;;18.10;99.90;;;;;;5078870;28;20049;-72
2022/08/06 08:00:29;;;;;;;4.45;0.90;;;18.30;99.90;;;;;;5078581;28;20032;-72
2022/08/06 08:08:25;;;;;;;2.22;0.60;;;18.40;99.90;;;;;;5084337;28;20364;-73
2022/08/06 08:10:53;;;;;;;1.83;0.57;;;18.60;99.90;;;;;;5083335;28;20432;-73
2022/08/06 08:13:21;;;;;;;4.53;0.88;;;18.70;99.90;;;;;;5077300;28;20059;-74
2022/08/06 08:15:48;;;;;;;4.32;0.90;;;18.70;99.90;;;;;;5070896;28;21697;-75
2022/08/06 08:18:14;;;;;;;2.67;0.75;;;18.60;99.90;;;;;;5076456;28;20032;-74
2022/08/06 08:20:42;;;;;;;3.83;1.00;;;18.80;99.90;;;;;;5061864;28;20393;-74
2022/08/06 08:23:11;;;;;;;4.15;0.93;;;18.90;99.90;;;;;;5073326;28;20037;-74
2022/08/06 08:25:37;;;;;;;3.20;0.73;;;19.00;99.90;;;;;;5070986;28;20375;-74
2022/08/06 08:28:07;;;;;;;5.15;0.90;;;19.10;99.90;;;;;;5063616;28;20074;-74
2022/08/06 08:30:33;;;;;;;5.88;0.85;;;19.00;99.90;;;;;;5063942;28;20047;-74
2022/08/06 08:32:58;;;;;;;3.45;0.90;;;19.00;99.90;;;;;;5065342;28;20048;-73
2022/08/06 08:35:24;;;;;;;4.50;0.75;;;18.90;99.90;;;;;;5073435;28;20055;-76
2022/08/06 08:37:50;;;;;;;3.33;0.77;;;18.90;99.90;;;;;;5072488;28;20044;-73
2022/08/06 08:40:15;;;;;;;4.80;0.80;;;18.80;99.90;;;;;;5055355;28;20044;-72
2022/08/06 08:42:48;;;;;;;2.42;1.00;;;18.60;99.90;;;;;;5080667;28;20127;-74
2022/08/06 08:45:15;;;;;;;5.53;0.80;;;18.30;99.90;;;;;;5083710;28;20423;-71
2022/08/06 08:47:45;;;;;;;9.45;0.93;;;18.10;99.90;;;;;;5087671;28;20047;-72
2022/08/06 08:50:12;;;;;;;4.72;0.98;;;17.80;99.90;;;;;;5064653;28;20043;-72
2022/08/06 08:52:43;;;;;;;1.42;0.60;;;17.70;99.90;;;;;;5090285;28;20119;-73
2022/08/06 08:55:14;;;;;;;3.40;0.80;;;17.70;99.90;;;;;;5078456;28;20039;-72
2022/08/06 08:57:40;;;;;;;6.22;1.10;;;17.70;99.90;;;;;;5082621;28;20085;-72
2022/08/06 09:00:07;;;;;;;6.20;1.23;;;17.80;99.90;;;;;;5081953;28;20059;-73
2022/08/06 09:02:33;;;;;;;4.22;1.20;;;17.80;99.90;;;;;;5083979;28;20040;-72
2022/08/06 09:05:00;;;;;;;4.25;1.08;;;17.70;99.90;;;;;;5078774;28;22122;-72
2022/08/06 09:07:27;;;;;;;5.72;1.33;;;17.80;99.90;;;;;;5064442;28;20117;-72
2022/08/06 09:09:54;;;;;;;4.30;1.15;;;17.90;99.90;;;;;;5088038;28;20079;-72
2022/08/06 09:12:20;;;;;;;8.32;1.33;;;18.00;99.90;;;;;;5073538;28;20356;-72
2022/08/06 09:14:46;;;;;;;3.70;1.30;;;17.90;99.90;;;;;;5090702;28;20094;-72
2022/08/06 09:17:12;;;;;;;5.78;1.42;;;18.00;99.90;;;;;;5087539;28;20036;-72
2022/08/06 09:19:38;;;;;;;4.32;1.48;;;18.00;99.90;;;;;;5075115;28;20058;-72
2022/08/06 09:22:04;;;;;;;4.05;1.20;;;17.90;99.90;;;;;;5091843;28;20040;-72
2022/08/06 09:24:30;;;;;;;4.00;1.10;;;18.00;99.90;;;;;;5080962;28;20495;-71
2022/08/06 09:27:06;;;;;;;6.50;1.20;;;18.30;99.90;;;;;;5091529;28;20108;-71
2022/08/06 09:29:32;;;;;;;4.28;1.25;;;18.30;99.90;;;;;;5092827;28;20059;-72
2022/08/06 09:31:59;;;;;;;6.50;1.70;;;18.40;99.90;;;;;;5075265;28;20069;-72
2022/08/06 09:34:35;;;;;;;3.60;1.23;;;18.40;99.90;;;;;;5075936;28;20084;-72
2022/08/06 09:37:04;;;;;;;4.63;1.38;;;18.60;99.90;;;;;;5074304;28;20044;-72
2022/08/06 09:39:40;;;;;;;4.50;1.50;;;18.60;99.90;;;;;;5081449;28;20461;-73
2022/08/06 09:42:07;;;;;;;5.25;1.48;;;18.80;99.90;;;;;;5082896;28;20097;-72
2022/08/06 09:44:34;;;;;;;5.88;1.20;;;18.90;99.90;;;;;;5086580;28;20046;-73
2022/08/06 09:47:00;;;;;;;3.47;1.38;;;18.80;99.90;;;;;;5082429;28;20060;-73
2022/08/06 09:49:27;;;;;;;4.03;1.45;;;18.80;99.90;;;;;;5066446;28;20051;-73
2022/08/06 09:52:19;;;;;;;2.88;1.40;;;18.80;99.90;;;;;;5079537;28;20044;-72
2022/08/06 09:54:46;;;;;;;6.25;1.70;;;19.10;99.90;;;;;;5077406;28;20044;-72
2022/08/06 09:57:12;;;;;;;3.95;1.52;;;19.20;99.90;;;;;;5078355;28;20792;-72
2022/08/06 09:59:48;;;;;;;2.70;1.52;;;19.50;99.90;;;;;;5086042;28;20032;-72
2022/08/06 10:02:15;;;;;;;3.15;1.38;;;19.80;99.90;;;;;;5083069;28;20056;-72
2022/08/06 10:04:41;;;;;;;3.15;1.40;;;19.70;99.90;;;;;;5083376;28;20032;-72
2022/08/06 10:07:07;;;;;;;7.03;2.08;;;19.60;99.90;;;;;;5075166;28;20097;-72
2022/08/06 10:09:33;;;;;;;3.67;1.65;;;19.50;99.90;;;;;;5086106;28;20143;-72
2022/08/06 10:11:59;;;;;;;3.15;1.60;;;19.60;99.90;;;;;;5084205;28;20543;-72
2022/08/06 10:14:24;;;;;;;2.63;1.70;;;19.80;99.90;;;;;;5078956;28;20047;-72
2022/08/06 10:17:13;;;;;;;4.47;1.58;;;20.10;99.90;;;;;;5081650;28;20031;-72
2022/08/06 10:19:41;;;;;;;3.25;1.67;;;20.20;99.90;;;;;;5079703;28;20120;-72
2022/08/06 10:22:15;;;;;;;2.72;1.50;;;20.10;99.90;;;;;;5074526;28;20036;-71
2022/08/06 10:24:50;;;;;;;4.50;1.50;;;20.10;99.90;;;;;;5073891;28;20072;-71
2022/08/06 10:27:20;;;;;;;;;;;20.10;99.70;;;;;;5080756;28;20044;-71
2022/08/06 10:29:51;;;;;;;3.05;1.50;;;20.20;99.60;;;;;;5076650;28;19920;-72
2022/08/06 10:32:28;;;;;;;3.85;1.50;;;20.30;99.30;;;;;;5077431;28;20062;-74
2022/08/06 10:34:57;;;;;;;3.08;1.40;;;20.30;99.20;;;;;;5063093;28;20078;-74
2022/08/06 10:37:23;;;;;;;4.20;1.85;;;20.30;98.40;;;;;;5076610;28;20395;-75
2022/08/06 10:39:55;;;;;;;4.03;1.63;;;20.20;98.20;;;;;;5058199;28;20052;-74
2022/08/06 10:42:21;;;;;;;5.75;1.58;;;20.20;98.20;;;;;;5076675;28;20487;-75
2022/08/06 10:44:49;;;;;;;3.05;1.30;;;20.10;98.40;;;;;;5063607;28;20028;-74
2022/08/06 10:47:15;;;;;;;3.85;1.85;;;20.10;97.90;;;;;;5082290;28;20493;-75
2022/08/06 10:49:42;;;;;;;1.80;1.40;;;20.10;97.80;;;;;;5087543;28;20106;-74
2022/08/06 10:52:10;;;;;;;2.58;1.50;;;20.40;98.10;;;;;;5081530;28;20043;-76
2022/08/06 10:54:36;;;;;;;2.90;1.75;;;20.70;98.20;;;;;;5083868;28;20104;-75
2022/08/06 10:57:02;;;;;;;2.40;1.67;;;20.40;98.60;;;;;;5077806;28;20076;-72
2022/08/06 10:59:28;;;;;;;5.32;2.00;;;20.60;98.40;;;;;;5076121;28;20082;-76
2022/08/06 11:02:18;;;;;;;4.93;1.75;;;20.70;97.80;;;;;;5078030;28;20500;-77
2022/08/06 11:05:00;;;;;;;3.03;2.00;;;20.70;97.30;;;;;;5062627;28;21221;-74
2022/08/06 11:07:56;;;;;;;2.42;1.77;;;20.80;97.20;;;;;;5070789;28;20075;-75
2022/08/06 11:10:43;;;;;;;3.90;1.95;;;20.50;96.70;;;;;;5073124;28;20542;-78
2022/08/06 11:13:23;;;;;;;2.88;1.75;;;20.90;97.30;;;;;;5078207;28;20090;-76
2022/08/06 11:15:49;;;;;;;3.30;2.03;;;20.90;96.00;;;;;;5065849;28;20133;-76
2022/08/06 11:18:16;;;;;;;4.35;1.85;;;21.00;95.70;;;;;;5060811;28;20135;-80
2022/08/06 11:20:44;;;;;;;2.00;1.70;;;21.50;95.70;;;;;;5075704;28;20178;-76
2022/08/06 11:23:13;;;;;;;2.45;2.00;;;21.40;95.10;;;;;;5057705;28;20036;-75
2022/08/06 11:25:47;;;;;;;3.55;2.13;;;21.40;95.00;;;;;;5076991;28;20035;-75
2022/08/06 11:28:14;;;;;;;2.58;1.90;;;21.50;94.70;;;;;;5073024;28;20037;-75
2022/08/06 11:30:43;;;;;;;3.17;2.10;;;21.50;94.60;;;;;;5077707;28;20440;-74
2022/08/06 11:33:10;;;;;;;3.60;2.30;;;21.50;94.20;;;;;;5087088;28;20106;-72
2022/08/06 11:35:35;;;;;;;2.55;2.17;;;21.40;93.90;;;;;;5069255;28;20127;-73
2022/08/06 11:38:08;;;;;;;3.17;2.10;;;21.40;93.90;;;;;;5063287;28;20123;-73
2022/08/06 11:40:54;;;;;;;3.95;2.28;;;21.60;94.10;;;;;;5082354;28;20043;-74
2022/08/06 11:43:42;;;;;;;3.78;2.08;;;22.30;94.20;;;;;;5083976;28;20052;-75
2022/08/06 11:46:27;;;;;;;3.92;2.30;;;22.30;94.30;;;;;;5084825;28;20028;-74
2022/08/06 11:49:13;;;;;;;4.35;2.40;;;22.50;94.00;;;;;;5060109;28;20044;-75
2022/08/06 11:51:43;;;;;;;3.15;2.50;;;22.50;94.40;;;;;;5062122;28;20072;-74
2022/08/06 11:54:11;;;;;;;3.58;2.22;;;22.30;94.50;;;;;;5072535;28;20059;-73
2022/08/06 11:57:06;;;;;;;2.80;2.20;;;22.40;94.20;;;;;;5070422;28;20130;-74
2022/08/06 11:59:49;;;;;;;2.78;2.28;;;22.40;93.40;;;;;;5070827;28;20127;-73
2022/08/06 12:02:36;;;;;;;3.38;2.50;;;22.60;93.00;;;;;;5074300;28;20048;-74
2022/08/06 12:05:02;;;;;;;3.72;2.55;;;22.50;93.20;;;;;;5060768;28;20040;-77
2022/08/06 12:07:34;;;;;;;2.60;2.15;;;22.50;93.60;;;;;;5074294;28;20032;-76
2022/08/06 12:10:05;;;;;;;2.67;2.30;;;22.70;93.70;;;;;;5055471;28;20048;-72
2022/08/06 12:12:39;;;;;;;5.22;2.58;;;22.90;93.40;;;;;;5074101;28;20152;-76
2022/08/06 12:15:19;;;;;;;2.45;2.20;;;23.10;93.70;;;;;;5098084;28;20040;-76
2022/08/06 12:17:53;;;;;;;3.90;2.28;;;23.30;93.60;;;;;;5056307;28;20048;-73
2022/08/06 12:20:52;;;;;;;4.07;2.30;;;22.80;92.90;;;;;;5079684;28;20193;-73
2022/08/06 12:23:22;;;;;;;3.38;2.10;;;23.00;93.20;;;;;;4991814;28;20085;-75
2022/08/06 12:25:48;;;;;;;3.47;2.28;;;22.80;93.50;;;;;;4991414;28;20042;-74
2022/08/06 12:28:17;;;;;;;3.30;2.10;;;22.80;93.70;;;;;;4989108;28;20568;-75
2022/08/06 12:30:48;;;;;;;3.25;2.10;;;22.40;93.20;;;;;;4986208;28;20148;-72
2022/08/06 12:33:15;;;;;;;2.30;2.10;;;22.50;93.60;;;;;;4970180;28;20129;-76
2022/08/06 12:35:52;;;;;;;2.50;2.30;;;22.00;93.00;;;;;;4999696;28;20042;-73
2022/08/06 12:38:19;;;;;;;2.65;2.33;;;22.00;92.10;;;;;;4986793;28;20079;-73
2022/08/06 12:40:58;;;;;;;2.60;2.40;;;22.40;92.80;;;;;;4983059;28;20097;-73
2022/08/06 12:43:24;;;;;;;3.63;2.67;;;22.90;92.90;;;;;;4984197;28;20052;-75
2022/08/06 12:46:06;;;;;;;2.63;2.22;;;22.80;93.70;;;;;;4963827;28;20101;-75
2022/08/06 12:48:34;;;;;;;2.63;2.40;;;23.30;93.50;;;;;;4984602;28;20053;-76
2022/08/06 12:51:13;;;;;;;2.78;2.35;;;23.20;93.30;;;;;;4972707;28;20525;-73
2022/08/06 12:53:48;;;;;;;2.50;2.20;;;23.00;92.00;;;;;;5001639;28;20046;-76
2022/08/06 12:56:15;;;;;;;2.67;2.17;;;23.10;92.00;;;;;;4991281;28;20453;-76
2022/08/06 12:58:42;;;;;;;2.25;1.80;;;23.40;91.40;;;;;;5024876;28;20166;-74
2022/08/06 13:01:11;;;;;;;2.47;2.28;;;23.70;90.60;;;;;;5084168;28;20045;-76
2022/08/06 13:03:41;;;;;;;4.30;2.53;;;24.10;91.30;;;;;;5080966;28;20032;-75
2022/08/06 13:06:46;;;;;;;2.67;2.30;;;24.40;91.40;;;;;;5087526;28;20036;-73
2022/08/06 13:09:12;;;;;;;4.07;2.03;;;24.80;90.90;;;;;;5061624;28;20048;-72
2022/08/06 13:11:38;;;;;;;6.68;2.45;;;25.00;91.10;;;;;;5085911;28;20066;-76
2022/08/06 13:14:12;;;;;;;2.40;2.20;;;24.90;90.80;;;;;;5093625;28;20040;-74